Time;durP1;ratioP1;P1;durP2;ratioP2;P2;SDS_P1;SDS_P2;PMS_P1;PMS_P2;Temp;Humidity;BMP_temperature;BMP_pressure;BME280_temperature;BME280_humidity;BME280_pressure;Samples;Min_cycle;Max_cycle;Signal;HPM_P1;HPM_P2
2022/01/08 00:01:53;;;;;;;3.20;1.60;;;;;;;;;;7392824;19;20014;-71
2022/01/08 00:04:18;;;;;;;2.53;1.60;;;;;;;;;;7388924;19;20035;-71
2022/01/08 00:06:43;;;;;;;11.25;5.65;;;;;;;;;;7392656;19;20006;-71
2022/01/08 00:09:08;;;;;;;3.08;2.10;;;;;;;;;;7391230;19;20011;-71
2022/01/08 00:11:35;;;;;;;1.88;1.63;;;;;;;;;;7391905;19;20325;-71
2022/01/08 00:14:04;;;;;;;2.38;1.75;;;;;;;;;;7392469;19;20010;-70
2022/01/08 00:16:33;;;;;;;1.98;1.60;;;;;;;;;;7392404;19;20037;-71
2022/01/08 00:18:58;;;;;;;2.17;1.80;;;;;;;;;;7386897;19;20137;-71
2022/01/08 00:21:23;;;;;;;2.80;1.20;;;;;;;;;;7390802;19;20010;-71
2022/01/08 00:23:49;;;;;;;3.53;1.40;;;;;;;;;;7389622;19;19994;-71
2022/01/08 00:26:14;;;;;;;1.77;1.33;;;;;;;;;;7393800;19;20348;-72
2022/01/08 00:28:39;;;;;;;1.60;1.20;;;;;;;;;;7387139;19;19999;-71
2022/01/08 00:31:05;;;;;;;1.48;0.90;;;;;;;;;;7391705;19;20005;-71
2022/01/08 00:33:30;;;;;;;1.45;1.00;;;;;;;;;;7387552;19;20084;-71
2022/01/08 00:35:55;;;;;;;1.42;1.20;;;;;;;;;;7389753;19;20446;-71
2022/01/08 00:38:21;;;;;;;7.88;4.03;;;;;;;;;;7387085;19;20010;-70
2022/01/08 00:40:46;;;;;;;2.33;1.67;;;;;;;;;;7390706;19;19999;-71
2022/01/08 00:43:11;;;;;;;1.45;1.17;;;;;;;;;;7388852;19;20007;-71
2022/01/08 00:45:37;;;;;;;1.13;0.93;;;;;;;;;;7389393;19;20058;-71
2022/01/08 00:48:02;;;;;;;1.05;1.02;;;;;;;;;;7390898;19;20003;-71
2022/01/08 00:50:28;;;;;;;1.67;1.10;;;;;;;;;;7389349;19;20071;-71
2022/01/08 00:52:53;;;;;;;1.17;1.08;;;;;;;;;;7390508;19;20003;-71
2022/01/08 00:55:18;;;;;;;1.60;1.00;;;;;;;;;;7390853;19;20461;-71
2022/01/08 00:57:43;;;;;;;1.20;1.10;;;;;;;;;;7391647;19;20027;-71
2022/01/08 01:00:11;;;;;;;2.38;1.35;;;;;;;;;;7385885;19;20002;-71
2022/01/08 01:02:38;;;;;;;0.98;0.88;;;;;;;;;;7389209;19;19999;-71
2022/01/08 01:05:05;;;;;;;1.10;1.00;;;;;;;;;;7388700;19;20009;-71
2022/01/08 01:07:30;;;;;;;1.50;1.27;;;;;;;;;;7392499;19;20002;-71
2022/01/08 01:09:56;;;;;;;1.20;1.10;;;;;;;;;;7387072;19;20066;-71
2022/01/08 01:12:21;;;;;;;0.93;0.88;;;;;;;;;;7388508;19;20400;-71
2022/01/08 01:14:46;;;;;;;1.42;0.80;;;;;;;;;;7389814;19;19998;-72
2022/01/08 01:17:12;;;;;;;1.50;1.10;;;;;;;;;;7389901;19;20464;-72
2022/01/08 01:19:37;;;;;;;1.20;1.10;;;;;;;;;;7384346;19;20022;-71
2022/01/08 01:22:04;;;;;;;1.35;1.00;;;;;;;;;;7387504;19;20010;-71
2022/01/08 01:24:31;;;;;;;1.00;0.88;;;;;;;;;;7385914;19;20010;-71
2022/01/08 01:43:24;;;;;;;0.90;0.63;;;;;;;;;;7385742;19;20010;-71
2022/01/08 01:48:34;;;;;;;0.85;0.55;;;;;;;;;;7389170;19;20025;-71
2022/01/08 01:50:59;;;;;;;1.20;0.95;;;;;;;;;;7388712;19;20014;-71
2022/01/08 01:53:24;;;;;;;0.68;0.60;;;;;;;;;;7386641;19;20006;-70
2022/01/08 01:55:50;;;;;;;0.77;0.73;;;;;;;;;;7388818;19;20006;-71
2022/01/08 01:58:16;;;;;;;0.63;0.63;;;;;;;;;;7384337;19;20010;-71
2022/01/08 02:00:47;;;;;;;1.42;0.90;;;;;;;;;;7386538;19;20002;-71
2022/01/08 02:03:13;;;;;;;0.43;0.43;;;;;;;;;;7385633;19;20009;-71
2022/01/08 02:05:38;;;;;;;0.60;0.60;;;;;;;;;;7390542;19;20006;-71
2022/01/08 02:08:03;;;;;;;1.30;0.80;;;;;;;;;;7385191;19;20003;-71
2022/01/08 02:10:29;;;;;;;1.27;0.73;;;;;;;;;;7388475;19;20013;-71
2022/01/08 02:12:54;;;;;;;0.85;0.68;;;;;;;;;;7386872;19;20326;-71
2022/01/08 02:15:19;;;;;;;0.90;0.80;;;;;;;;;;7385505;19;19995;-70
2022/01/08 02:17:45;;;;;;;1.20;0.70;;;;;;;;;;7389349;19;20106;-71
2022/01/08 02:20:11;;;;;;;0.65;0.65;;;;;;;;;;7386664;19;20460;-71
2022/01/08 02:22:36;;;;;;;0.80;0.70;;;;;;;;;;7384468;19;19998;-71
2022/01/08 02:25:02;;;;;;;1.00;0.90;;;;;;;;;;7387034;19;20342;-71
2022/01/08 02:27:28;;;;;;;0.80;0.57;;;;;;;;;;7389204;19;20471;-71
2022/01/08 02:29:53;;;;;;;0.73;0.73;;;;;;;;;;7382818;19;20007;-71
2022/01/08 02:32:25;;;;;;;2.03;0.68;;;;;;;;;;7388959;19;20011;-71
2022/01/08 02:34:50;;;;;;;0.55;0.45;;;;;;;;;;7387008;19;20002;-71
2022/01/08 02:37:19;;;;;;;0.52;0.52;;;;;;;;;;7386459;19;20018;-71
2022/01/08 02:39:48;;;;;;;1.00;0.70;;;;;;;;;;7382501;19;20075;-71
2022/01/08 02:42:17;;;;;;;0.63;0.60;;;;;;;;;;7385631;19;20003;-71
2022/01/08 02:44:43;;;;;;;1.17;0.77;;;;;;;;;;7385599;19;20476;-71
2022/01/08 02:47:09;;;;;;;2.47;0.85;;;;;;;;;;7385400;19;20002;-71
2022/01/08 02:49:36;;;;;;;0.63;0.50;;;;;;;;;;7385544;19;20011;-71
2022/01/08 02:52:03;;;;;;;0.63;0.45;;;;;;;;;;7384784;19;20422;-71
2022/01/08 02:54:29;;;;;;;0.80;0.60;;;;;;;;;;7388276;19;20028;-71
2022/01/08 02:56:54;;;;;;;0.82;0.50;;;;;;;;;;7390446;19;20383;-71
2022/01/08 02:59:19;;;;;;;0.60;0.60;;;;;;;;;;7391894;19;20011;-71
2022/01/08 03:01:45;;;;;;;0.85;0.57;;;;;;;;;;7391949;19;19994;-71
2022/01/08 03:04:11;;;;;;;0.40;0.40;;;;;;;;;;7392501;19;20008;-71
2022/01/08 03:06:37;;;;;;;0.95;0.65;;;;;;;;;;7394287;19;20010;-71
2022/01/08 03:09:03;;;;;;;0.73;0.60;;;;;;;;;;7388393;19;20030;-71
2022/01/08 03:11:28;;;;;;;1.00;0.55;;;;;;;;;;7391730;19;20472;-71
2022/01/08 03:13:54;;;;;;;1.08;0.80;;;;;;;;;;7391997;19;20013;-71
2022/01/08 03:16:19;;;;;;;0.68;0.68;;;;;;;;;;7392847;19;20073;-71
2022/01/08 03:18:47;;;;;;;1.10;0.70;;;;;;;;;;7388110;19;20018;-70
2022/01/08 03:21:17;;;;;;;0.80;0.65;;;;;;;;;;7394849;19;20030;-72
2022/01/08 03:24:06;;;;;;;0.80;0.55;;;;;;;;;;7391527;19;20066;-71
2022/01/08 03:26:32;;;;;;;1.02;0.43;;;;;;;;;;7390754;19;20038;-71
2022/01/08 03:28:57;;;;;;;1.02;0.60;;;;;;;;;;7390497;19;20081;-71
2022/01/08 03:31:25;;;;;;;0.43;0.40;;;;;;;;;;7393392;19;20519;-71
2022/01/08 03:33:52;;;;;;;1.05;0.70;;;;;;;;;;7393079;19;20027;-71
2022/01/08 03:36:19;;;;;;;1.30;0.52;;;;;;;;;;7393651;19;20472;-71
2022/01/08 03:38:45;;;;;;;2.30;0.98;;;;;;;;;;7389973;19;20538;-71
2022/01/08 03:41:10;;;;;;;2.60;1.40;;;;;;;;;;7392594;19;20002;-71
2022/01/08 03:43:36;;;;;;;1.60;1.00;;;;;;;;;;7389760;19;20027;-71
2022/01/08 03:46:03;;;;;;;1.20;0.90;;;;;;;;;;7391888;19;20330;-70
2022/01/08 03:48:32;;;;;;;0.88;0.73;;;;;;;;;;7391400;19;20010;-71
2022/01/08 03:50:58;;;;;;;0.52;0.47;;;;;;;;;;7393176;19;20029;-71
2022/01/08 03:53:24;;;;;;;1.35;0.68;;;;;;;;;;7390802;19;20019;-71
2022/01/08 03:55:50;;;;;;;0.60;0.55;;;;;;;;;;7391222;19;20017;-71
2022/01/08 03:58:16;;;;;;;0.80;0.52;;;;;;;;;;7387447;19;20528;-71
2022/01/08 04:00:42;;;;;;;1.35;0.70;;;;;;;;;;7389498;19;20009;-71
2022/01/08 04:03:08;;;;;;;0.38;0.38;;;;;;;;;;7391971;19;20031;-71
2022/01/08 04:05:33;;;;;;;0.90;0.68;;;;;;;;;;7389495;19;20003;-71
2022/01/08 04:07:58;;;;;;;1.10;0.63;;;;;;;;;;7389802;19;20070;-71
2022/01/08 04:10:24;;;;;;;0.45;0.45;;;;;;;;;;7391001;19;20006;-71
2022/01/08 04:12:54;;;;;;;0.88;0.75;;;;;;;;;;7390644;19;20468;-71
2022/01/08 04:17:53;;;;;;;0.98;0.80;;;;;;;;;;7388719;19;19998;-71
2022/01/08 04:20:20;;;;;;;1.15;0.50;;;;;;;;;;7389452;19;20018;-71
2022/01/08 04:22:49;;;;;;;0.70;0.52;;;;;;;;;;7389069;19;20496;-71
2022/01/08 04:25:16;;;;;;;0.70;0.52;;;;;;;;;;7389866;19;20010;-71
2022/01/08 04:27:41;;;;;;;1.00;0.70;;;;;;;;;;7389012;19;20010;-71
2022/01/08 04:30:07;;;;;;;0.47;0.47;;;;;;;;;;7390561;19;20017;-71
2022/01/08 04:32:33;;;;;;;1.58;0.52;;;;;;;;;;7391571;19;19999;-71
2022/01/08 04:34:58;;;;;;;0.90;0.60;;;;;;;;;;7389192;19;20464;-71
2022/01/08 04:37:23;;;;;;;0.73;0.60;;;;;;;;;;7390121;19;20010;-71
2022/01/08 04:39:49;;;;;;;2.60;0.70;;;;;;;;;;7385659;19;20042;-71
2022/01/08 04:42:14;;;;;;;0.63;0.57;;;;;;;;;;7387249;19;20074;-71
2022/01/08 04:44:39;;;;;;;0.93;0.80;;;;;;;;;;7389103;19;20448;-71
2022/01/08 04:47:05;;;;;;;0.68;0.50;;;;;;;;;;7388981;19;20348;-71
2022/01/08 04:49:30;;;;;;;1.05;0.60;;;;;;;;;;7387778;19;20017;-71
2022/01/08 04:51:56;;;;;;;0.52;0.52;;;;;;;;;;7390885;19;20002;-71
2022/01/08 04:54:22;;;;;;;1.33;0.77;;;;;;;;;;7389318;19;20013;-71
2022/01/08 04:56:47;;;;;;;1.23;0.90;;;;;;;;;;7390098;19;20002;-71
2022/01/08 04:59:13;;;;;;;1.45;1.00;;;;;;;;;;7386186;19;20345;-72
2022/01/08 05:01:38;;;;;;;0.93;0.75;;;;;;;;;;7391142;19;20017;-71
2022/01/08 05:04:04;;;;;;;1.17;0.70;;;;;;;;;;7387625;19;20006;-71
2022/01/08 05:06:30;;;;;;;0.50;0.43;;;;;;;;;;7387595;19;20385;-71
2022/01/08 05:08:56;;;;;;;0.75;0.55;;;;;;;;;;7384329;19;20027;-71
2022/01/08 05:11:21;;;;;;;1.00;0.75;;;;;;;;;;7391083;19;20010;-71
2022/01/08 05:13:46;;;;;;;0.88;0.70;;;;;;;;;;7387930;19;20463;-71
2022/01/08 05:16:12;;;;;;;0.75;0.55;;;;;;;;;;7390247;19;20464;-71
2022/01/08 05:18:37;;;;;;;1.30;0.60;;;;;;;;;;7383455;19;20045;-70
2022/01/08 05:21:46;;;;;;;0.85;0.70;;;;;;;;;;7388481;19;20018;-71
2022/01/08 05:23:54;;;;;;;1.00;0.80;;;;;;;;;;7384831;19;20103;-71
2022/01/08 05:26:19;;;;;;;1.17;0.50;;;;;;;;;;7388879;19;20023;-71
2022/01/08 05:28:44;;;;;;;1.20;0.60;;;;;;;;;;7384581;19;20457;-71
2022/01/08 05:31:11;;;;;;;0.55;0.47;;;;;;;;;;7388518;19;20007;-71
2022/01/08 05:33:37;;;;;;;0.43;0.43;;;;;;;;;;7387941;19;20010;-71
2022/01/08 05:36:02;;;;;;;0.90;0.40;;;;;;;;;;7385890;19;19995;-71
2022/01/08 05:38:28;;;;;;;0.65;0.63;;;;;;;;;;7384273;19;20010;-71
2022/01/08 05:40:53;;;;;;;0.50;0.50;;;;;;;;;;7388586;19;19998;-71
2022/01/08 05:43:18;;;;;;;0.82;0.40;;;;;;;;;;7386251;19;20031;-71
2022/01/08 05:45:44;;;;;;;0.85;0.65;;;;;;;;;;7387999;19;20374;-71
2022/01/08 05:48:09;;;;;;;0.50;0.50;;;;;;;;;;7377544;19;20102;-70
2022/01/08 05:50:35;;;;;;;0.60;0.52;;;;;;;;;;7387588;19;20014;-71
2022/01/08 05:53:00;;;;;;;1.50;0.70;;;;;;;;;;7384402;19;20337;-70
2022/01/08 05:55:25;;;;;;;0.57;0.50;;;;;;;;;;7387259;19;20010;-71
2022/01/08 05:57:51;;;;;;;0.82;0.43;;;;;;;;;;7386027;19;20011;-71
2022/01/08 06:00:16;;;;;;;2.08;0.40;;;;;;;;;;7385483;19;20007;-71
2022/01/08 06:02:42;;;;;;;0.70;0.50;;;;;;;;;;7385672;19;19998;-71
2022/01/08 06:05:08;;;;;;;0.57;0.45;;;;;;;;;;7383645;19;20020;-71
2022/01/08 06:07:34;;;;;;;0.57;0.45;;;;;;;;;;7383874;19;20002;-71
2022/01/08 06:09:59;;;;;;;0.40;0.40;;;;;;;;;;7379621;19;20471;-71
2022/01/08 06:12:25;;;;;;;0.50;0.50;;;;;;;;;;7382707;19;20014;-73
2022/01/08 06:14:50;;;;;;;2.05;0.50;;;;;;;;;;7385452;19;20480;-71
2022/01/08 06:17:15;;;;;;;0.98;0.38;;;;;;;;;;7386659;19;19995;-71
2022/01/08 06:19:41;;;;;;;0.57;0.50;;;;;;;;;;7381715;19;20467;-71
2022/01/08 06:22:06;;;;;;;0.70;0.47;;;;;;;;;;7386513;19;20019;-72
2022/01/08 06:24:31;;;;;;;1.27;0.88;;;;;;;;;;7384134;19;19995;-71
2022/01/08 06:26:57;;;;;;;1.17;0.70;;;;;;;;;;7385727;19;20015;-71
2022/01/08 06:29:22;;;;;;;0.77;0.50;;;;;;;;;;7379039;19;20315;-71
2022/01/08 06:31:48;;;;;;;1.25;0.50;;;;;;;;;;7388979;19;20409;-71
2022/01/08 06:34:13;;;;;;;0.70;0.43;;;;;;;;;;7390849;19;20002;-71
2022/01/08 06:36:38;;;;;;;0.75;0.50;;;;;;;;;;7393408;19;19990;-71
2022/01/08 06:39:04;;;;;;;0.68;0.40;;;;;;;;;;7386201;19;20011;-70
2022/01/08 06:41:29;;;;;;;0.57;0.30;;;;;;;;;;7394698;19;20094;-71
2022/01/08 06:43:56;;;;;;;0.30;0.20;;;;;;;;;;7389786;19;20361;-71
2022/01/08 06:46:21;;;;;;;0.70;0.40;;;;;;;;;;7392889;19;20011;-71
2022/01/08 06:48:47;;;;;;;1.02;0.38;;;;;;;;;;7390362;19;20026;-70
2022/01/08 06:51:12;;;;;;;0.63;0.30;;;;;;;;;;7393600;19;20006;-71
2022/01/08 06:53:37;;;;;;;0.55;0.47;;;;;;;;;;7392570;19;20014;-71
2022/01/08 06:56:04;;;;;;;0.82;0.43;;;;;;;;;;7390066;19;20117;-71
2022/01/08 06:58:29;;;;;;;0.52;0.40;;;;;;;;;;7349174;19;20095;-71
2022/01/08 07:00:55;;;;;;;2.50;0.70;;;;;;;;;;7387876;19;20015;-71
2022/01/08 07:03:20;;;;;;;1.50;0.68;;;;;;;;;;7390547;19;20375;-72
2022/01/08 07:05:45;;;;;;;1.33;0.80;;;;;;;;;;7391983;19;20003;-71
2022/01/08 07:08:11;;;;;;;1.70;0.65;;;;;;;;;;7389672;19;20007;-71
2022/01/08 07:10:37;;;;;;;1.63;0.50;;;;;;;;;;7391687;19;20250;-71
2022/01/08 07:13:02;;;;;;;0.57;0.28;;;;;;;;;;7390793;19;20015;-71
2022/01/08 07:15:28;;;;;;;1.38;0.40;;;;;;;;;;7390118;19;20005;-72
2022/01/08 07:17:53;;;;;;;1.23;0.30;;;;;;;;;;7390286;19;20020;-71
2022/01/08 07:20:19;;;;;;;0.30;0.30;;;;;;;;;;7386235;19;20416;-71
2022/01/08 07:22:44;;;;;;;0.80;0.30;;;;;;;;;;7388943;19;20015;-71
2022/01/08 07:25:10;;;;;;;1.58;0.70;;;;;;;;;;7388442;19;19995;-71
2022/01/08 07:27:36;;;;;;;0.40;0.40;;;;;;;;;;7389268;19;20055;-71
2022/01/08 07:30:04;;;;;;;1.73;0.50;;;;;;;;;;7388117;19;19995;-71
2022/01/08 07:32:30;;;;;;;0.35;0.30;;;;;;;;;;7391315;19;20010;-71
2022/01/08 07:34:55;;;;;;;0.65;0.60;;;;;;;;;;7390190;19;19998;-71
2022/01/08 07:37:20;;;;;;;1.75;0.60;;;;;;;;;;7386488;19;20518;-70
2022/01/08 07:39:46;;;;;;;0.43;0.32;;;;;;;;;;7386108;19;20003;-71
2022/01/08 07:42:11;;;;;;;0.40;0.40;;;;;;;;;;7389954;19;20018;-70
2022/01/08 07:44:36;;;;;;;1.05;0.77;;;;;;;;;;7387984;19;20003;-70
2022/01/08 07:47:02;;;;;;;1.30;0.80;;;;;;;;;;7392560;19;20085;-71
2022/01/08 07:49:28;;;;;;;2.42;0.60;;;;;;;;;;7386399;19;19995;-71
2022/01/08 07:51:53;;;;;;;2.53;1.17;;;;;;;;;;7389416;19;19995;-71
2022/01/08 07:54:18;;;;;;;0.70;0.43;;;;;;;;;;7392764;19;20026;-71
2022/01/08 07:56:44;;;;;;;0.40;0.40;;;;;;;;;;7390144;19;20901;-71
2022/01/08 07:59:09;;;;;;;0.38;0.38;;;;;;;;;;7388536;19;20473;-71
2022/01/08 08:01:34;;;;;;;0.55;0.40;;;;;;;;;;7390657;19;20025;-71
2022/01/08 08:04:00;;;;;;;0.63;0.35;;;;;;;;;;7384290;19;20529;-70
2022/01/08 08:06:25;;;;;;;0.98;0.30;;;;;;;;;;7388691;19;20007;-70
2022/01/08 08:08:50;;;;;;;1.98;0.30;;;;;;;;;;7384009;19;20606;-70
2022/01/08 08:11:16;;;;;;;0.65;0.60;;;;;;;;;;7390204;19;20011;-70
2022/01/08 08:13:41;;;;;;;0.50;0.40;;;;;;;;;;7391043;19;20295;-70
2022/01/08 08:16:07;;;;;;;1.30;0.60;;;;;;;;;;7386420;19;20535;-70
2022/01/08 08:18:32;;;;;;;0.47;0.47;;;;;;;;;;7383868;19;20006;-71
2022/01/08 08:20:58;;;;;;;0.30;0.30;;;;;;;;;;7385719;19;20369;-70
2022/01/08 08:23:23;;;;;;;0.45;0.30;;;;;;;;;;7387431;19;20015;-70
2022/01/08 08:25:49;;;;;;;0.65;0.30;;;;;;;;;;7387738;19;19999;-70
2022/01/08 08:28:14;;;;;;;0.65;0.40;;;;;;;;;;7382628;19;20045;-69
2022/01/08 08:30:40;;;;;;;0.50;0.40;;;;;;;;;;7378856;19;20099;-70
2022/01/08 08:33:05;;;;;;;0.40;0.35;;;;;;;;;;7381612;19;19999;-71
2022/01/08 08:35:32;;;;;;;0.70;0.50;;;;;;;;;;7389090;19;19999;-70
2022/01/08 08:37:57;;;;;;;0.65;0.40;;;;;;;;;;7389056;19;20014;-70
2022/01/08 08:40:23;;;;;;;0.28;0.28;;;;;;;;;;7386772;19;20029;-70
2022/01/08 08:42:48;;;;;;;2.25;0.40;;;;;;;;;;7385698;19;19999;-70
2022/01/08 08:45:13;;;;;;;1.30;0.70;;;;;;;;;;7391592;19;20355;-70
2022/01/08 08:47:40;;;;;;;1.08;0.50;;;;;;;;;;7389311;19;20003;-70
2022/01/08 08:50:08;;;;;;;2.13;0.88;;;;;;;;;;7389497;19;20010;-70
2022/01/08 08:52:33;;;;;;;0.65;0.52;;;;;;;;;;7385472;19;20010;-70
2022/01/08 08:54:58;;;;;;;0.38;0.38;;;;;;;;;;7388450;19;20018;-70
2022/01/08 08:57:24;;;;;;;0.70;0.40;;;;;;;;;;7389801;19;20010;-70
2022/01/08 08:59:49;;;;;;;0.30;0.30;;;;;;;;;;7385064;19;20440;-70
2022/01/08 09:02:14;;;;;;;0.93;0.65;;;;;;;;;;7385281;19;20332;-70
2022/01/08 09:04:41;;;;;;;1.95;0.40;;;;;;;;;;7385469;19;20030;-70
2022/01/08 09:07:07;;;;;;;0.40;0.40;;;;;;;;;;7387998;19;19994;-69
2022/01/08 09:09:32;;;;;;;0.75;0.40;;;;;;;;;;7385488;19;20196;-69
2022/01/08 09:11:58;;;;;;;0.40;0.40;;;;;;;;;;7385538;19;20006;-70
2022/01/08 09:14:23;;;;;;;0.30;0.28;;;;;;;;;;7387226;19;20011;-69
2022/01/08 09:16:51;;;;;;;1.75;0.45;;;;;;;;;;7386786;19;20003;-69
2022/01/08 09:19:18;;;;;;;0.45;0.43;;;;;;;;;;7382351;19;20009;-71
2022/01/08 09:21:44;;;;;;;0.32;0.30;;;;;;;;;;7384523;19;20021;-70
2022/01/08 09:24:11;;;;;;;0.73;0.50;;;;;;;;;;7384806;19;20007;-71
2022/01/08 09:26:36;;;;;;;1.55;0.63;;;;;;;;;;7385288;19;20502;-70
2022/01/08 09:29:02;;;;;;;0.70;0.20;;;;;;;;;;7384408;19;20006;-70
2022/01/08 09:31:27;;;;;;;0.68;0.40;;;;;;;;;;7384260;19;20002;-70
2022/01/08 09:33:53;;;;;;;0.38;0.38;;;;;;;;;;7383289;19;20453;-70
2022/01/08 09:36:18;;;;;;;0.32;0.30;;;;;;;;;;7388359;19;20445;-70
2022/01/08 09:38:44;;;;;;;0.45;0.45;;;;;;;;;;7385060;19;20539;-69
2022/01/08 09:41:09;;;;;;;0.88;0.55;;;;;;;;;;7386514;19;20063;-70
2022/01/08 09:43:35;;;;;;;1.17;0.40;;;;;;;;;;7380169;19;20475;-71
2022/01/08 09:46:01;;;;;;;0.88;0.47;;;;;;;;;;7385819;19;20003;-70
2022/01/08 09:48:26;;;;;;;0.47;0.38;;;;;;;;;;7384340;19;20030;-70
2022/01/08 09:50:51;;;;;;;0.30;0.30;;;;;;;;;;7383882;19;20006;-70
2022/01/08 09:53:17;;;;;;;0.77;0.70;;;;;;;;;;7382879;19;20019;-70
2022/01/08 09:55:42;;;;;;;1.17;0.57;;;;;;;;;;7381553;19;20504;-70
2022/01/08 09:58:07;;;;;;;0.63;0.40;;;;;;;;;;7380797;19;20006;-70
2022/01/08 10:00:34;;;;;;;1.13;0.60;;;;;;;;;;7385963;19;20102;-71
2022/01/08 10:03:22;;;;;;;0.50;0.40;;;;;;;;;;7381246;19;20070;-70
2022/01/08 10:05:58;;;;;;;0.80;0.57;;;;;;;;;;7377915;19;20019;-70
2022/01/08 10:08:26;;;;;;;1.70;0.52;;;;;;;;;;7383332;19;20007;-70
2022/01/08 10:10:57;;;;;;;0.88;0.50;;;;;;;;;;7384196;19;20022;-69
2022/01/08 10:13:25;;;;;;;0.55;0.50;;;;;;;;;;7383868;19;20010;-71
2022/01/08 10:18:38;;;;;;;0.40;0.40;;;;;;;;;;7383504;19;20038;-71
2022/01/08 10:21:14;;;;;;;0.85;0.63;;;;;;;;;;7387820;19;20054;-71
2022/01/08 10:23:43;;;;;;;0.50;0.50;;;;;;;;;;7387153;19;20030;-71
2022/01/08 10:26:13;;;;;;;0.80;0.70;;;;;;;;;;7386644;19;20027;-71
2022/01/08 10:28:44;;;;;;;1.15;0.73;;;;;;;;;;7385011;19;20015;-70
2022/01/08 10:31:15;;;;;;;1.00;0.57;;;;;;;;;;7383957;19;20018;-71
2022/01/08 10:33:46;;;;;;;2.75;1.05;;;;;;;;;;7386712;19;20357;-71
2022/01/08 10:36:12;;;;;;;2.20;1.15;;;;;;;;;;7382096;19;20397;-71
2022/01/08 10:38:38;;;;;;;1.85;0.73;;;;;;;;;;7368486;19;21302;-73
2022/01/08 10:41:03;;;;;;;1.80;0.70;;;;;;;;;;7383128;19;20041;-72
2022/01/08 10:43:32;;;;;;;3.85;0.98;;;;;;;;;;7382828;19;20003;-71
2022/01/08 10:46:09;;;;;;;1.73;0.90;;;;;;;;;;7385614;19;20018;-71
2022/01/08 10:48:36;;;;;;;1.30;0.80;;;;;;;;;;7381269;19;20260;-72
2022/01/08 10:51:19;;;;;;;2.35;0.70;;;;;;;;;;7374610;19;20003;-71
2022/01/08 10:54:16;;;;;;;1.40;0.80;;;;;;;;;;7386808;19;20035;-71
2022/01/08 10:56:49;;;;;;;1.20;0.70;;;;;;;;;;7370616;19;20044;-71
2022/01/08 10:59:23;;;;;;;2.22;0.80;;;;;;;;;;7380264;19;20452;-72
2022/01/08 11:02:13;;;;;;;1.08;0.85;;;;;;;;;;7386841;19;20007;-72
2022/01/08 11:04:47;;;;;;;1.83;1.10;;;;;;;;;;7382396;19;19998;-72
2022/01/08 11:07:21;;;;;;;1.35;0.85;;;;;;;;;;7384581;19;20009;-71
2022/01/08 11:09:49;;;;;;;2.22;1.08;;;;;;;;;;7381667;19;20472;-72
2022/01/08 11:12:29;;;;;;;1.15;0.82;;;;;;;;;;7384176;19;20003;-72
2022/01/08 11:15:22;;;;;;;2.25;0.98;;;;;;;;;;7384860;19;20078;-72
2022/01/08 11:17:48;;;;;;;4.47;2.47;;;;;;;;;;7384204;19;20070;-72
2022/01/08 11:20:25;;;;;;;2.35;1.40;;;;;;;;;;7391284;19;20006;-71
2022/01/08 11:22:52;;;;;;;6.30;1.00;;;;;;;;;;7385244;19;20430;-72
2022/01/08 11:25:23;;;;;;;2.38;1.42;;;;;;;;;;7388227;19;20002;-71
2022/01/08 11:27:57;;;;;;;1.92;1.20;;;;;;;;;;7388457;19;20073;-71
2022/01/08 11:30:28;;;;;;;2.10;1.10;;;;;;;;;;7387495;19;20476;-71
2022/01/08 11:32:57;;;;;;;2.58;1.20;;;;;;;;;;7391412;19;20023;-72
2022/01/08 11:35:24;;;;;;;2.90;1.45;;;;;;;;;;7391283;19;19998;-71
2022/01/08 11:37:52;;;;;;;3.00;1.30;;;;;;;;;;7390209;19;20010;-71
2022/01/08 11:40:22;;;;;;;2.13;1.13;;;;;;;;;;7386398;19;20418;-71
2022/01/08 11:42:48;;;;;;;5.53;3.00;;;;;;;;;;7384350;19;20066;-71
2022/01/08 11:45:17;;;;;;;3.53;1.50;;;;;;;;;;7389709;19;20016;-71
2022/01/08 11:48:04;;;;;;;3.75;2.20;;;;;;;;;;7391727;19;20026;-71
2022/01/08 11:50:30;;;;;;;4.78;1.90;;;;;;;;;;7391120;19;20006;-72
2022/01/08 11:53:23;;;;;;;3.35;1.75;;;;;;;;;;7384916;19;20384;-72
2022/01/08 11:55:51;;;;;;;2.40;1.52;;;;;;;;;;7390009;19;20016;-71
2022/01/08 11:58:16;;;;;;;4.22;1.70;;;;;;;;;;7387220;19;20356;-71
2022/01/08 12:01:10;;;;;;;1.42;1.25;;;;;;;;;;7384671;19;20024;-71
2022/01/08 12:03:50;;;;;;;2.58;1.60;;;;;;;;;;7389253;19;20043;-70
2022/01/08 12:06:18;;;;;;;4.20;1.45;;;;;;;;;;7386028;19;20339;-71
2022/01/08 12:11:46;;;;;;;3.58;1.30;;;;;;;;;;7390240;19;20326;-71
2022/01/08 12:14:20;;;;;;;1.40;1.30;;;;;;;;;;7388782;19;20382;-71
2022/01/08 12:16:47;;;;;;;2.83;1.50;;;;;;;;;;7389006;19;20444;-71
2022/01/08 12:19:30;;;;;;;3.15;1.58;;;;;;;;;;7383346;19;20137;-71
2022/01/08 12:21:56;;;;;;;2.85;1.13;;;;;;;;;;7389601;19;20308;-71
2022/01/08 12:24:27;;;;;;;4.20;2.03;;;;;;;;;;7387881;19;20432;-71
2022/01/08 12:26:54;;;;;;;4.15;1.70;;;;;;;;;;7386867;19;20066;-71
2022/01/08 12:29:38;;;;;;;3.70;1.75;;;;;;;;;;7384520;19;20011;-71
2022/01/08 12:32:19;;;;;;;1.70;0.98;;;;;;;;;;7387708;19;20011;-71
2022/01/08 12:34:48;;;;;;;2.15;1.05;;;;;;;;;;7386828;19;20010;-70
2022/01/08 12:37:14;;;;;;;5.38;1.33;;;;;;;;;;7388282;19;20013;-71
2022/01/08 12:39:48;;;;;;;3.80;1.40;;;;;;;;;;7383160;19;20107;-71
2022/01/08 12:42:20;;;;;;;1.87;1.33;;;;;;;;;;7385572;19;20002;-71
2022/01/08 12:45:19;;;;;;;2.17;1.17;;;;;;;;;;7386475;19;20013;-70
2022/01/08 12:47:47;;;;;;;3.17;1.75;;;;;;;;;;7383888;19;20034;-71
2022/01/08 12:50:24;;;;;;;1.35;1.02;;;;;;;;;;7384633;19;20027;-71
2022/01/08 12:53:05;;;;;;;3.75;1.10;;;;;;;;;;7383608;19;19998;-71
2022/01/08 12:55:36;;;;;;;1.83;1.20;;;;;;;;;;7389261;19;20002;-71
2022/01/08 12:58:11;;;;;;;1.60;1.15;;;;;;;;;;7384762;19;20010;-71
2022/01/08 13:01:01;;;;;;;1.27;0.85;;;;;;;;;;7384440;19;20006;-72
2022/01/08 13:03:40;;;;;;;2.17;1.00;;;;;;;;;;7381093;19;19999;-71
2022/01/08 13:06:12;;;;;;;0.90;0.80;;;;;;;;;;7385064;19;20002;-71
2022/01/08 13:08:37;;;;;;;1.95;0.80;;;;;;;;;;7383143;19;20077;-71
2022/01/08 13:11:05;;;;;;;1.15;0.70;;;;;;;;;;7385747;19;20497;-71
2022/01/08 13:13:48;;;;;;;2.25;0.60;;;;;;;;;;7384032;19;20009;-71
2022/01/08 13:16:16;;;;;;;0.93;0.55;;;;;;;;;;7385675;19;20432;-71
2022/01/08 13:18:53;;;;;;;1.60;0.88;;;;;;;;;;7384739;19;20025;-71
2022/01/08 13:21:20;;;;;;;3.13;1.17;;;;;;;;;;7383934;19;20007;-71
2022/01/08 13:23:49;;;;;;;2.38;0.93;;;;;;;;;;7380931;19;20019;-70
2022/01/08 13:26:25;;;;;;;1.75;0.88;;;;;;;;;;7360993;19;20510;-71
2022/01/08 13:28:51;;;;;;;2.13;1.05;;;;;;;;;;7183135;19;3009151;-71
2022/01/08 13:31:19;;;;;;;1.88;0.70;;;;;;;;;;7379202;19;20105;-71
2022/01/08 13:33:56;;;;;;;2.47;0.57;;;;;;;;;;7384707;19;20459;-71
2022/01/08 13:36:22;;;;;;;4.13;0.70;;;;;;;;;;7381758;19;20090;-71
2022/01/08 13:38:47;;;;;;;2.15;0.70;;;;;;;;;;7378239;19;20006;-71
2022/01/08 13:41:14;;;;;;;1.58;0.50;;;;;;;;;;7382503;19;20014;-71
2022/01/08 13:44:04;;;;;;;1.48;1.20;;;;;;;;;;7379983;19;20103;-71
2022/01/08 13:46:34;;;;;;;4.68;1.85;;;;;;;;;;7384744;19;20006;-71
2022/01/08 13:49:01;;;;;;;1.95;0.40;;;;;;;;;;7380814;19;20038;-71
2022/01/08 13:51:27;;;;;;;2.47;0.32;;;;;;;;;;7383280;19;20021;-71
2022/01/08 13:54:01;;;;;;;0.90;0.50;;;;;;;;;;7382978;19;20030;-73
2022/01/08 13:56:28;;;;;;;1.35;0.60;;;;;;;;;;7380045;19;20015;-71
2022/01/08 13:59:10;;;;;;;1.10;0.47;;;;;;;;;;7378444;19;20037;-71
2022/01/08 14:01:39;;;;;;;1.02;0.47;;;;;;;;;;7386433;19;20047;-71
2022/01/08 14:04:05;;;;;;;1.00;0.55;;;;;;;;;;7382357;19;20058;-71
2022/01/08 14:06:31;;;;;;;2.47;0.90;;;;;;;;;;7381428;19;20380;-71
2022/01/08 14:09:00;;;;;;;1.23;0.60;;;;;;;;;;7380449;19;20015;-71
2022/01/08 14:11:26;;;;;;;1.52;0.40;;;;;;;;;;7377184;19;20122;-71
2022/01/08 14:13:53;;;;;;;1.88;0.68;;;;;;;;;;7382888;19;20681;-71
2022/01/08 14:16:30;;;;;;;1.15;0.47;;;;;;;;;;7381818;19;20026;-71
2022/01/08 14:19:10;;;;;;;0.63;0.40;;;;;;;;;;7381198;19;20027;-71
2022/01/08 14:21:38;;;;;;;1.40;0.70;;;;;;;;;;7381609;19;20035;-71
2022/01/08 14:24:35;;;;;;;0.85;0.57;;;;;;;;;;7381004;19;20013;-71
2022/01/08 14:27:01;;;;;;;1.15;0.70;;;;;;;;;;7376643;19;20026;-71
2022/01/08 14:29:27;;;;;;;1.83;0.88;;;;;;;;;;7379752;19;20011;-71
2022/01/08 14:31:55;;;;;;;3.88;0.68;;;;;;;;;;7382495;19;20416;-71
2022/01/08 14:34:21;;;;;;;0.68;0.55;;;;;;;;;;7382044;19;20015;-71
2022/01/08 14:36:51;;;;;;;2.00;1.00;;;;;;;;;;7379457;19;20006;-71
2022/01/08 14:39:36;;;;;;;1.10;0.88;;;;;;;;;;7374768;19;20033;-71
2022/01/08 14:42:06;;;;;;;1.33;0.82;;;;;;;;;;7380555;19;20042;-71
2022/01/08 14:44:33;;;;;;;3.55;1.58;;;;;;;;;;7380103;19;20090;-71
2022/01/08 14:46:59;;;;;;;4.45;1.85;;;;;;;;;;7383164;19;20007;-71
2022/01/08 14:49:24;;;;;;;4.35;2.28;;;;;;;;;;7379653;19;20010;-71
2022/01/08 14:51:52;;;;;;;5.47;1.77;;;;;;;;;;7384880;19;20017;-71
2022/01/08 14:54:23;;;;;;;5.03;2.90;;;;;;;;;;7391170;19;20008;-71
2022/01/08 14:56:49;;;;;;;3.42;1.90;;;;;;;;;;7388874;19;20003;-72
2022/01/08 14:59:14;;;;;;;3.25;1.52;;;;;;;;;;7388503;19;20366;-71
2022/01/08 15:01:40;;;;;;;2.72;1.65;;;;;;;;;;7391728;19;20381;-71
2022/01/08 15:04:06;;;;;;;6.95;2.22;;;;;;;;;;7388653;19;20062;-72
2022/01/08 15:06:31;;;;;;;1.52;1.00;;;;;;;;;;7392102;19;20480;-72
2022/01/08 15:08:57;;;;;;;2.15;0.90;;;;;;;;;;7389591;19;20480;-73
2022/01/08 15:11:22;;;;;;;1.15;0.82;;;;;;;;;;7388421;19;20002;-72
2022/01/08 15:13:48;;;;;;;1.63;0.85;;;;;;;;;;7392494;19;20015;-72
2022/01/08 15:16:14;;;;;;;1.77;0.93;;;;;;;;;;7391199;19;20078;-72